Time;durP1;ratioP1;P1;durP2;ratioP2;P2;SDS_P1;SDS_P2;PMS_P1;PMS_P2;Temp;Humidity;BMP_temperature;BMP_pressure;BME280_temperature;BME280_humidity;BME280_pressure;Samples;Min_cycle;Max_cycle;Signal;HPM_P1;HPM_P2
2023/02/24 00:01:27;;;;;;;9.70;1.93;;;;;;;;;;5073992;28;20380;-77
2023/02/24 00:03:59;;;;;;;9.20;1.53;;;;;;;;;;5080548;28;20104;-77
2023/02/24 00:06:25;;;;;;;11.50;1.65;;;;;;;;;;5074102;28;20108;-77
2023/02/24 00:08:50;;;;;;;12.00;1.50;;;;;;;;;;5072070;28;20081;-77
2023/02/24 00:11:17;;;;;;;14.77;2.07;;;;;;;;;;5072640;28;20379;-77
2023/02/24 00:13:45;;;;;;;14.07;2.00;;;;;;;;;;5074014;28;20025;-78
2023/02/24 00:16:12;;;;;;;15.53;1.50;;;;;;;;;;5072542;28;20115;-78
2023/02/24 00:18:37;;;;;;;14.60;1.90;;;;;;;;;;5068491;28;20044;-77
2023/02/24 00:21:08;;;;;;;11.00;1.70;;;;;;;;;;5072221;28;20024;-78
2023/02/24 00:23:37;;;;;;;11.03;1.90;;;;;;;;;;5058928;28;20384;-77
2023/02/24 00:26:03;;;;;;;12.17;2.50;;;;;;;;;;5075438;28;20086;-77
2023/02/24 00:28:29;;;;;;;9.80;1.77;;;;;;;;;;5073862;28;20051;-78
2023/02/24 00:30:55;;;;;;;18.33;1.70;;;;;;;;;;5072287;28;20432;-77
2023/02/24 00:33:22;;;;;;;11.27;1.87;;;;;;;;;;5070136;28;20055;-77
2023/02/24 00:35:48;;;;;;;9.97;1.60;;;;;;;;;;5070245;28;20029;-78
2023/02/24 00:38:13;;;;;;;10.33;2.03;;;;;;;;;;5072281;28;20032;-77
2023/02/24 00:40:40;;;;;;;8.83;1.63;;;;;;;;;;5069429;28;20108;-77
2023/02/24 00:43:07;;;;;;;13.67;1.80;;;;;;;;;;5068846;28;20099;-78
2023/02/24 00:45:35;;;;;;;14.53;2.10;;;;;;;;;;5071818;28;20476;-77
2023/02/24 00:48:03;;;;;;;10.00;2.20;;;;;;;;;;5073457;28;20020;-78
2023/02/24 00:50:29;;;;;;;13.93;1.73;;;;;;;;;;5066429;28;20075;-78
2023/02/24 00:52:54;;;;;;;17.17;2.17;;;;;;;;;;5071787;28;20016;-78
2023/02/24 00:55:22;;;;;;;12.13;1.53;;;;;;;;;;5074171;28;20361;-77
2023/02/24 00:57:49;;;;;;;10.70;2.30;;;;;;;;;;5084121;28;20119;-77
2023/02/24 01:00:15;;;;;;;7.10;1.43;;;;;;;;;;5071841;28;20020;-77
2023/02/24 01:02:43;;;;;;;13.33;1.57;;;;;;;;;;5071174;28;20025;-77
2023/02/24 01:05:08;;;;;;;13.30;1.93;;;;;;;;;;5071253;28;20515;-77
2023/02/24 01:07:34;;;;;;;11.37;1.93;;;;;;;;;;5066585;28;20147;-77
2023/02/24 01:09:59;;;;;;;9.73;2.07;;;;;;;;;;5071333;28;20493;-78
2023/02/24 01:12:37;;;;;;;14.57;1.93;;;;;;;;;;5071520;28;20451;-77
2023/02/24 01:15:03;;;;;;;15.63;2.20;;;;;;;;;;5072848;28;20020;-78
2023/02/24 01:17:29;;;;;;;9.23;2.17;;;;;;;;;;5072563;28;20020;-77
2023/02/24 01:19:59;;;;;;;19.87;2.30;;;;;;;;;;5071127;28;20399;-78
2023/02/24 01:22:24;;;;;;;12.43;2.07;;;;;;;;;;5071170;28;20249;-78
2023/02/24 01:24:50;;;;;;;10.13;1.90;;;;;;;;;;5068732;28;20115;-78
2023/02/24 01:27:17;;;;;;;7.50;1.90;;;;;;;;;;5065915;28;20383;-78
2023/02/24 01:29:42;;;;;;;14.10;1.87;;;;;;;;;;5070869;28;20095;-77
2023/02/24 01:32:12;;;;;;;21.53;2.53;;;;;;;;;;5073607;28;20508;-78
2023/02/24 01:34:37;;;;;;;9.73;2.00;;;;;;;;;;5074896;28;20016;-77
2023/02/24 01:37:03;;;;;;;13.43;2.40;;;;;;;;;;5074753;28;20502;-78
2023/02/24 01:39:28;;;;;;;19.73;2.63;;;;;;;;;;5084145;28;20475;-78
2023/02/24 01:41:53;;;;;;;13.20;1.77;;;;;;;;;;5075463;28;20021;-78
2023/02/24 01:44:22;;;;;;;13.77;3.07;;;;;;;;;;5052381;28;20017;-78
2023/02/24 01:46:49;;;;;;;14.63;2.00;;;;;;;;;;5076016;28;20537;-78
2023/02/24 01:49:23;;;;;;;13.87;2.50;;;;;;;;;;5080943;28;20028;-78
2023/02/24 01:51:53;;;;;;;13.67;2.63;;;;;;;;;;5070872;28;20028;-78
2023/02/24 01:54:20;;;;;;;13.03;2.07;;;;;;;;;;5079748;28;20067;-77
2023/02/24 01:56:48;;;;;;;21.03;2.53;;;;;;;;;;5072039;28;20020;-77
2023/02/24 01:59:14;;;;;;;10.67;2.30;;;;;;;;;;5069711;28;20024;-77
2023/02/24 02:01:41;;;;;;;15.07;2.10;;;;;;;;;;5057721;28;20345;-78
2023/02/24 02:04:10;;;;;;;9.47;2.03;;;;;;;;;;5072119;28;20012;-78
2023/02/24 02:06:38;;;;;;;13.20;2.60;;;;;;;;;;5070057;28;20013;-77
2023/02/24 02:09:03;;;;;;;17.37;2.53;;;;;;;;;;5080925;28;20024;-77
2023/02/24 02:11:28;;;;;;;7.70;2.33;;;;;;;;;;5075387;28;20353;-77
2023/02/24 02:13:55;;;;;;;13.33;2.53;;;;;;;;;;5071930;28;20020;-77
2023/02/24 02:16:23;;;;;;;13.03;2.07;;;;;;;;;;5067780;28;20029;-78
2023/02/24 02:19:07;;;;;;;23.87;2.63;;;;;;;;;;5066581;28;20116;-78
2023/02/24 02:21:54;;;;;;;10.27;2.33;;;;;;;;;;5065846;28;20094;-77
2023/02/24 02:24:28;;;;;;;23.83;2.83;;;;;;;;;;5072776;28;20030;-77
2023/02/24 02:27:11;;;;;;;15.03;2.30;;;;;;;;;;5076080;28;20013;-77
2023/02/24 02:29:49;;;;;;;8.03;1.73;;;;;;;;;;5070038;28;20027;-78
2023/02/24 02:32:33;;;;;;;12.23;2.03;;;;;;;;;;5073745;28;20070;-78
2023/02/24 02:35:11;;;;;;;17.57;2.67;;;;;;;;;;5070719;28;20443;-78
2023/02/24 02:37:55;;;;;;;12.63;2.00;;;;;;;;;;5086396;28;20181;-78
2023/02/24 02:40:25;;;;;;;10.73;1.77;;;;;;;;;;5070001;28;20433;-78
2023/02/24 02:42:58;;;;;;;15.60;2.00;;;;;;;;;;5058875;28;20056;-78
2023/02/24 02:45:27;;;;;;;9.40;2.03;;;;;;;;;;5066823;28;20490;-78
2023/02/24 02:47:57;;;;;;;6.67;1.67;;;;;;;;;;5071300;28;20016;-78
2023/02/24 02:50:22;;;;;;;10.03;1.93;;;;;;;;;;5062560;28;20024;-78
2023/02/24 02:52:53;;;;;;;8.93;1.90;;;;;;;;;;5065068;28;20117;-78
2023/02/24 02:55:29;;;;;;;15.00;2.30;;;;;;;;;;5073373;28;20605;-78
2023/02/24 02:57:55;;;;;;;9.97;1.53;;;;;;;;;;5069879;28;20023;-78
2023/02/24 03:00:28;;;;;;;10.13;1.73;;;;;;;;;;5062756;28;20589;-78
2023/02/24 03:02:56;;;;;;;6.87;1.70;;;;;;;;;;5068564;28;20019;-78
2023/02/24 03:05:28;;;;;;;14.73;2.30;;;;;;;;;;5080437;28;20102;-77
2023/02/24 03:07:55;;;;;;;6.70;1.70;;;;;;;;;;5072571;28;20027;-78
2023/02/24 03:10:28;;;;;;;7.33;1.70;;;;;;;;;;5071197;28;20024;-77
2023/02/24 03:12:56;;;;;;;10.73;1.70;;;;;;;;;;5066765;28;20027;-77
2023/02/24 03:15:22;;;;;;;9.73;1.80;;;;;;;;;;5077765;28;20032;-78
2023/02/24 03:17:54;;;;;;;8.73;1.70;;;;;;;;;;5069779;28;20024;-77
2023/02/24 03:20:22;;;;;;;14.55;1.70;;;;;;;;;;5079933;28;20025;-78
2023/02/24 03:23:05;;;;;;;11.87;1.60;;;;;;;;;;5073897;28;20509;-77
2023/02/24 03:25:45;;;;;;;9.80;1.70;;;;;;;;;;5073333;28;20047;-78
2023/02/24 03:28:17;;;;;;;9.43;1.83;;;;;;;;;;5073306;28;20070;-77
2023/02/24 03:30:42;;;;;;;;;;;;;;;;;;5084721;28;20100;-77
2023/02/24 03:33:16;;;;;;;10.40;1.30;;;;;;;;;;5074770;28;19940;-78
2023/02/24 03:35:42;;;;;;;14.97;1.70;;;;;;;;;;5060440;28;20017;-77
2023/02/24 03:38:09;;;;;;;15.93;2.30;;;;;;;;;;5073253;28;20107;-78
2023/02/24 03:40:35;;;;;;;6.93;1.60;;;;;;;;;;5066955;28;20025;-78
2023/02/24 03:43:21;;;;;;;12.47;2.00;;;;;;;;;;5071330;28;20020;-77
2023/02/24 03:45:47;;;;;;;20.20;2.47;;;;;;;;;;5062470;28;20051;-77
2023/02/24 03:48:13;;;;;;;11.00;2.37;;;;;;;;;;5072749;28;20384;-78
2023/02/24 03:50:39;;;;;;;12.30;2.23;;;;;;;;;;5075250;28;20468;-78
2023/02/24 03:53:21;;;;;;;15.67;2.77;;;;;;;;;;5073089;28;20847;-77
2023/02/24 03:56:05;;;;;;;7.97;2.03;;;;;;;;;;5073982;28;20032;-78
2023/02/24 03:58:33;;;;;;;19.97;2.30;;;;;;;;;;5071145;28;20571;-78
2023/02/24 04:01:06;;;;;;;10.33;2.07;;;;;;;;;;5077478;28;20047;-77
2023/02/24 04:03:48;;;;;;;10.37;2.17;;;;;;;;;;5072983;28;20021;-77
2023/02/24 04:06:16;;;;;;;12.20;2.20;;;;;;;;;;5074125;28;20024;-77
2023/02/24 04:08:51;;;;;;;11.97;2.17;;;;;;;;;;5074541;28;20070;-77
2023/02/24 04:11:36;;;;;;;9.57;1.70;;;;;;;;;;5074012;28;20091;-78
2023/02/24 04:14:11;;;;;;;10.63;2.10;;;;;;;;;;5072062;28;20499;-77
2023/02/24 04:16:40;;;;;;;17.87;2.43;;;;;;;;;;5066307;28;20025;-78
2023/02/24 04:19:08;;;;;;;7.73;1.70;;;;;;;;;;5075895;28;20340;-78
2023/02/24 04:21:34;;;;;;;12.33;2.57;;;;;;;;;;5075364;28;20055;-77
2023/02/24 04:24:05;;;;;;;8.90;2.00;;;;;;;;;;5072524;28;20036;-77
2023/02/24 04:26:30;;;;;;;13.47;1.90;;;;;;;;;;5072355;28;20316;-78
2023/02/24 04:28:56;;;;;;;9.03;1.70;;;;;;;;;;5072320;28;20031;-78
2023/02/24 04:31:23;;;;;;;15.10;2.40;;;;;;;;;;5071732;28;20040;-77
2023/02/24 04:33:52;;;;;;;13.97;2.20;;;;;;;;;;5064485;28;20040;-78
2023/02/24 04:36:18;;;;;;;12.27;2.00;;;;;;;;;;5072338;28;20391;-78
2023/02/24 04:38:44;;;;;;;16.57;2.17;;;;;;;;;;5073263;28;20017;-77
2023/02/24 04:41:10;;;;;;;11.87;2.13;;;;;;;;;;5085409;28;20033;-77
2023/02/24 04:43:35;;;;;;;11.97;2.17;;;;;;;;;;5073379;28;20107;-77
2023/02/24 04:46:06;;;;;;;12.43;1.90;;;;;;;;;;5071655;28;20024;-78
2023/02/24 04:48:31;;;;;;;8.80;2.00;;;;;;;;;;5072014;28;20024;-78
2023/02/24 04:51:01;;;;;;;9.80;2.00;;;;;;;;;;5071085;28;20016;-77
2023/02/24 04:53:27;;;;;;;9.40;2.10;;;;;;;;;;5071660;28;20121;-77
2023/02/24 04:55:52;;;;;;;10.10;2.17;;;;;;;;;;5073022;28;20118;-77
2023/02/24 04:58:22;;;;;;;5.57;1.97;;;;;;;;;;5071778;28;20031;-78
2023/02/24 05:00:48;;;;;;;20.40;2.20;;;;;;;;;;5072904;28;20020;-78
2023/02/24 05:03:14;;;;;;;11.40;2.23;;;;;;;;;;5071917;28;20025;-77
2023/02/24 05:05:41;;;;;;;7.83;2.30;;;;;;;;;;5073094;28;20020;-78
2023/02/24 05:08:08;;;;;;;6.43;2.07;;;;;;;;;;5070043;28;20492;-77
2023/02/24 05:10:37;;;;;;;12.30;2.50;;;;;;;;;;5072998;28;20092;-78
2023/02/24 05:13:02;;;;;;;10.73;1.97;;;;;;;;;;5071331;28;20020;-78
2023/02/24 05:15:30;;;;;;;12.00;2.57;;;;;;;;;;5083197;28;20538;-78
2023/02/24 05:17:59;;;;;;;20.60;2.67;;;;;;;;;;5076239;28;20013;-78
2023/02/24 05:23:10;;;;;;;13.07;2.07;;;;;;;;;;5073000;28;20067;-78
2023/02/24 05:25:36;;;;;;;14.10;1.90;;;;;;;;;;5065241;28;20124;-78
2023/02/24 05:28:02;;;;;;;11.30;2.30;;;;;;;;;;5071119;28;20021;-77
2023/02/24 05:30:28;;;;;;;7.57;2.10;;;;;;;;;;5071104;28;20375;-77
2023/02/24 05:32:53;;;;;;;8.33;2.00;;;;;;;;;;5071309;28;20020;-77
2023/02/24 05:35:18;;;;;;;9.47;2.30;;;;;;;;;;5067073;28;20044;-78
2023/02/24 05:37:43;;;;;;;8.33;2.00;;;;;;;;;;5072394;28;20097;-77
2023/02/24 05:40:12;;;;;;;8.17;1.90;;;;;;;;;;5071044;28;20101;-77
2023/02/24 05:42:37;;;;;;;18.97;2.77;;;;;;;;;;5055623;28;20573;-77
2023/02/24 05:45:04;;;;;;;12.10;3.20;;;;;;;;;;5068014;28;20017;-78
2023/02/24 05:47:29;;;;;;;12.20;2.50;;;;;;;;;;5088240;28;20029;-77
2023/02/24 05:49:57;;;;;;;8.13;2.43;;;;;;;;;;5070906;28;20127;-77
2023/02/24 05:52:23;;;;;;;12.77;2.57;;;;;;;;;;5070886;28;20032;-78
2023/02/24 05:54:48;;;;;;;8.90;2.23;;;;;;;;;;5070541;28;20034;-78
2023/02/24 05:57:19;;;;;;;13.33;2.80;;;;;;;;;;5069733;28;20032;-77
2023/02/24 05:59:47;;;;;;;10.87;2.57;;;;;;;;;;5075250;28;20024;-77
2023/02/24 06:02:13;;;;;;;11.90;2.57;;;;;;;;;;5079135;28;20028;-78
2023/02/24 06:04:45;;;;;;;14.30;2.83;;;;;;;;;;5072430;28;20013;-78
2023/02/24 06:07:17;;;;;;;7.47;2.28;;;;;;;;;;5070757;28;20020;-78
2023/02/24 06:09:43;;;;;;;13.87;2.50;;;;;;;;;;5070505;28;20020;-78
2023/02/24 06:12:09;;;;;;;15.70;2.40;;;;;;;;;;5072496;28;20099;-77
2023/02/24 06:14:34;;;;;;;14.67;3.33;;;;;;;;;;5069781;28;20115;-77
2023/02/24 06:17:02;;;;;;;11.83;2.47;;;;;;;;;;5070427;28;20019;-77
2023/02/24 06:19:30;;;;;;;6.60;2.13;;;;;;;;;;5070199;28;20027;-77
2023/02/24 06:21:56;;;;;;;7.43;2.67;;;;;;;;;;5070688;28;20058;-78
2023/02/24 06:24:21;;;;;;;12.37;2.50;;;;;;;;;;5070565;28;20119;-77
2023/02/24 06:26:48;;;;;;;11.80;2.60;;;;;;;;;;5080506;28;20431;-78
2023/02/24 06:29:15;;;;;;;10.30;2.50;;;;;;;;;;5070430;28;20427;-77
2023/02/24 06:31:41;;;;;;;9.60;2.00;;;;;;;;;;5070385;28;20220;-78
2023/02/24 06:34:09;;;;;;;6.70;2.30;;;;;;;;;;5068133;28;20032;-77
2023/02/24 06:36:35;;;;;;;16.23;3.03;;;;;;;;;;5063903;28;20032;-77
2023/02/24 06:39:01;;;;;;;11.93;2.40;;;;;;;;;;5073983;28;20044;-78
2023/02/24 06:41:28;;;;;;;11.57;3.43;;;;;;;;;;5077561;28;20054;-78
2023/02/24 06:43:53;;;;;;;10.57;2.00;;;;;;;;;;5075142;28;20021;-77
2023/02/24 06:46:19;;;;;;;7.77;2.43;;;;;;;;;;5078816;28;20100;-77
2023/02/24 06:48:46;;;;;;;6.80;2.17;;;;;;;;;;5073456;28;20098;-78
2023/02/24 06:51:14;;;;;;;7.30;2.70;;;;;;;;;;5070866;28;20476;-78
2023/02/24 06:53:42;;;;;;;8.80;2.43;;;;;;;;;;5080398;28;20474;-77
2023/02/24 06:56:16;;;;;;;13.53;2.70;;;;;;;;;;5076475;28;20108;-78
2023/02/24 06:58:42;;;;;;;14.87;4.20;;;;;;;;;;5075275;28;20024;-77
2023/02/24 07:01:10;;;;;;;31.80;7.47;;;;;;;;;;5077497;28;20043;-78
2023/02/24 07:03:38;;;;;;;34.47;12.63;;;;;;;;;;5077375;28;20127;-77
2023/02/24 07:06:19;;;;;;;23.37;8.03;;;;;;;;;;5071961;28;20460;-78
2023/02/24 07:08:45;;;;;;;19.33;6.07;;;;;;;;;;5073771;28;20352;-77
2023/02/24 07:11:10;;;;;;;21.37;6.63;;;;;;;;;;5089666;28;20028;-77
2023/02/24 07:13:35;;;;;;;16.80;5.60;;;;;;;;;;5073669;28;20033;-78
2023/02/24 07:16:06;;;;;;;27.77;7.83;;;;;;;;;;5072868;28;20387;-77
2023/02/24 07:18:40;;;;;;;33.47;9.43;;;;;;;;;;5070821;28;20076;-77
2023/02/24 07:21:10;;;;;;;22.43;7.27;;;;;;;;;;5068266;28;20499;-77
2023/02/24 07:23:35;;;;;;;16.83;5.10;;;;;;;;;;5070509;28;20071;-77
2023/02/24 07:26:05;;;;;;;17.20;5.20;;;;;;;;;;5070830;28;20024;-77
2023/02/24 07:28:30;;;;;;;19.97;4.60;;;;;;;;;;5073052;28;20020;-77
2023/02/24 07:30:56;;;;;;;14.43;3.80;;;;;;;;;;5070533;28;20046;-78
2023/02/24 07:33:24;;;;;;;9.53;3.43;;;;;;;;;;5074815;28;20420;-77
2023/02/24 07:35:50;;;;;;;23.10;4.10;;;;;;;;;;5067218;28;20119;-77
2023/02/24 07:38:18;;;;;;;14.80;3.77;;;;;;;;;;5073420;28;20079;-77
2023/02/24 07:40:46;;;;;;;15.27;3.90;;;;;;;;;;5066714;28;20052;-77
2023/02/24 07:43:11;;;;;;;10.77;3.60;;;;;;;;;;5072333;28;20063;-77
2023/02/24 07:45:36;;;;;;;10.07;3.37;;;;;;;;;;5070359;28;20100;-77
2023/02/24 07:48:01;;;;;;;12.40;3.47;;;;;;;;;;5073441;28;20090;-77
2023/02/24 07:50:31;;;;;;;18.73;3.90;;;;;;;;;;5074920;28;20024;-77
2023/02/24 07:52:56;;;;;;;18.17;4.37;;;;;;;;;;5067383;28;20028;-77
2023/02/24 07:55:24;;;;;;;17.77;4.37;;;;;;;;;;5071476;28;20077;-77
2023/02/24 07:57:50;;;;;;;13.83;3.17;;;;;;;;;;5065640;28;20017;-77
2023/02/24 08:00:19;;;;;;;16.77;3.20;;;;;;;;;;5059447;28;20052;-78
2023/02/24 08:02:47;;;;;;;16.07;3.63;;;;;;;;;;5050236;28;20043;-77
2023/02/24 08:05:13;;;;;;;17.27;2.87;;;;;;;;;;5056508;28;20037;-78
2023/02/24 08:07:41;;;;;;;9.33;2.97;;;;;;;;;;5052765;28;20056;-78
2023/02/24 08:10:12;;;;;;;12.33;2.67;;;;;;;;;;5051248;28;20163;-77
2023/02/24 08:12:41;;;;;;;10.65;2.65;;;;;;;;;;5050293;28;20038;-77
2023/02/24 08:15:07;;;;;;;14.90;3.70;;;;;;;;;;5049658;28;20037;-77
2023/02/24 08:17:34;;;;;;;24.57;5.83;;;;;;;;;;5054594;28;20095;-79
2023/02/24 08:20:20;;;;;;;24.93;5.27;;;;;;;;;;5084643;28;20041;-78
2023/02/24 08:22:51;;;;;;;14.03;3.20;;;;;;;;;;5067508;28;20035;-79
2023/02/24 08:25:17;;;;;;;16.27;4.47;;;;;;;;;;5063789;28;20025;-79
2023/02/24 08:27:43;;;;;;;17.33;4.07;;;;;;;;;;5067324;28;20021;-78
2023/02/24 08:30:20;;;;;;;14.33;3.57;;;;;;;;;;5066427;28;20507;-79
2023/02/24 08:32:45;;;;;;;12.33;2.83;;;;;;;;;;5052938;28;20530;-79
2023/02/24 08:35:14;;;;;;;15.53;2.77;;;;;;;;;;5052811;28;20025;-78
2023/02/24 08:37:46;;;;;;;8.97;2.73;;;;;;;;;;5072667;28;20044;-78
2023/02/24 08:40:58;;;;;;;11.20;2.97;;;;;;;;;;5072741;28;20032;-79
2023/02/24 08:43:15;;;;;;;10.27;2.83;;;;;;;;;;5069527;28;20487;-79
2023/02/24 08:46:03;;;;;;;13.20;3.30;;;;;;;;;;5070737;28;20029;-79
2023/02/24 08:48:35;;;;;;;9.20;3.03;;;;;;;;;;5065023;28;20041;-79
2023/02/24 08:51:03;;;;;;;9.32;2.80;;;;;;;;;;5062677;28;20116;-78
2023/02/24 08:53:30;;;;;;;13.03;3.17;;;;;;;;;;5059307;28;20117;-79
2023/02/24 08:55:56;;;;;;;12.97;2.00;;;;;;;;;;5062177;28;20021;-79
2023/02/24 08:58:25;;;;;;;7.03;2.40;;;;;;;;;;5077911;28;20082;-78
2023/02/24 09:00:55;;;;;;;9.50;2.73;;;;;;;;;;5071138;28;20090;-79
2023/02/24 09:03:28;;;;;;;11.67;2.67;;;;;;;;;;5088552;28;20096;-79
2023/02/24 09:05:57;;;;;;;12.48;2.80;;;;;;;;;;5071761;28;20020;-79
2023/02/24 09:08:23;;;;;;;12.40;2.60;;;;;;;;;;5058097;28;20032;-81
2023/02/24 09:10:48;;;;;;;6.83;2.27;;;;;;;;;;5071504;28;20020;-78
2023/02/24 09:13:13;;;;;;;8.17;2.00;;;;;;;;;;5071715;28;20470;-78
2023/02/24 09:15:40;;;;;;;9.83;2.57;;;;;;;;;;5071816;28;20043;-78
2023/02/24 09:18:13;;;;;;;14.13;2.83;;;;;;;;;;5066881;28;20107;-78
2023/02/24 09:21:14;;;;;;;9.83;2.10;;;;;;;;;;5065257;28;20039;-78
2023/02/24 09:23:44;;;;;;;10.80;2.40;;;;;;;;;;5063498;28;20024;-79
2023/02/24 09:26:12;;;;;;;8.50;1.97;;;;;;;;;;5051429;28;20529;-78
2023/02/24 09:28:47;;;;;;;10.83;1.73;;;;;;;;;;5078587;28;20463;-77
2023/02/24 09:31:15;;;;;;;9.43;1.50;;;;;;;;;;5065053;28;20024;-78
2023/02/24 09:33:41;;;;;;;10.93;1.97;;;;;;;;;;5061842;28;20491;-79
2023/02/24 09:36:18;;;;;;;7.53;1.67;;;;;;;;;;5055181;28;20028;-79
2023/02/24 09:41:30;;;;;;;7.53;1.80;;;;;;;;;;5056850;28;20021;-79
2023/02/24 09:44:02;;;;;;;8.17;1.80;;;;;;;;;;5054811;28;20013;-79
2023/02/24 09:46:29;;;;;;;11.20;2.05;;;;;;;;;;5060186;28;20028;-78
2023/02/24 09:49:04;;;;;;;20.53;1.90;;;;;;;;;;5054776;28;20697;-78
2023/02/24 09:51:40;;;;;;;11.93;1.70;;;;;;;;;;5061578;28;20020;-78
2023/02/24 09:54:12;;;;;;;10.40;1.50;;;;;;;;;;5052617;28;20021;-79
2023/02/24 09:56:43;;;;;;;6.13;1.50;;;;;;;;;;5052318;28;20020;-78
2023/02/24 09:59:39;;;;;;;10.37;1.57;;;;;;;;;;5071299;28;20032;-78
2023/02/24 10:02:10;;;;;;;9.03;1.30;;;;;;;;;;5057052;28;20040;-78
2023/02/24 10:05:05;;;;;;;7.13;1.45;;;;;;;;;;5068053;28;20514;-79
2023/02/24 10:07:42;;;;;;;14.03;1.80;;;;;;;;;;5058034;28;20033;-78
2023/02/24 10:10:26;;;;;;;6.10;1.27;;;;;;;;;;5059340;28;20124;-78
2023/02/24 10:12:59;;;;;;;5.10;1.37;;;;;;;;;;5054414;28;20016;-78
2023/02/24 10:18:26;;;;;;;7.40;1.20;;;;;;;;;;5054487;28;20028;-78
2023/02/24 10:20:52;;;;;;;16.00;1.93;;;;;;;;;;5050662;28;20037;-80
2023/02/24 10:23:32;;;;;;;12.80;1.80;;;;;;;;;;5051944;28;20042;-79
2023/02/24 10:26:08;;;;;;;10.47;1.60;;;;;;;;;;5057298;28;20020;-77
2023/02/24 10:29:21;;;;;;;6.80;1.40;;;;;;;;;;5052572;28;20075;-77
2023/02/24 10:31:56;;;;;;;;;;;;;;;;;;5066830;28;20020;-77
2023/02/24 10:34:30;;;;;;;16.87;2.13;;;;;;;;;;5048249;28;19912;-78
2023/02/24 10:36:56;;;;;;;10.40;1.40;;;;;;;;;;5074047;28;20048;-78
2023/02/24 10:39:24;;;;;;;8.13;1.40;;;;;;;;;;5070548;28;20086;-78
2023/02/24 10:41:57;;;;;;;11.23;1.77;;;;;;;;;;5062429;28;20051;-78
2023/02/24 10:44:24;;;;;;;7.63;1.67;;;;;;;;;;5066891;28;20017;-78
2023/02/24 10:47:19;;;;;;;3.57;1.33;;;;;;;;;;5061318;28;20599;-78
2023/02/24 10:49:57;;;;;;;13.77;2.10;;;;;;;;;;5070640;28;20031;-78
2023/02/24 10:52:36;;;;;;;8.37;1.73;;;;;;;;;;5071634;28;20040;-78
2023/02/24 10:55:27;;;;;;;11.67;2.40;;;;;;;;;;5070857;28;20361;-78
2023/02/24 10:58:14;;;;;;;6.70;1.40;;;;;;;;;;5070368;28;20024;-78
2023/02/24 11:03:44;;;;;;;7.93;1.70;;;;;;;;;;5071968;28;20027;-78
2023/02/24 11:06:29;;;;;;;10.07;1.77;;;;;;;;;;5070009;28;20021;-78
2023/02/24 11:17:20;;;;;;;8.83;1.90;;;;;;;;;;5070812;28;20515;-79
2023/02/24 11:19:48;;;;;;;10.10;2.20;;;;;;;;;;5056012;28;20127;-79
2023/02/24 11:22:19;;;;;;;7.87;1.70;;;;;;;;;;5070251;28;20106;-79
2023/02/24 11:24:45;;;;;;;6.40;1.57;;;;;;;;;;5069898;28;20046;-79
2023/02/24 11:27:10;;;;;;;8.37;1.67;;;;;;;;;;5082674;28;20107;-78
2023/02/24 11:29:57;;;;;;;13.73;2.47;;;;;;;;;;5073413;28;20031;-79
2023/02/24 11:32:45;;;;;;;7.77;1.90;;;;;;;;;;5089217;28;20021;-78
2023/02/24 11:35:26;;;;;;;8.63;2.23;;;;;;;;;;5069250;28;20048;-78
2023/02/24 11:38:11;;;;;;;6.20;1.50;;;;;;;;;;5073864;28;20043;-78
2023/02/24 11:40:38;;;;;;;9.83;1.33;;;;;;;;;;5071905;28;20024;-78
2023/02/24 11:43:12;;;;;;;7.87;1.27;;;;;;;;;;5078438;28;20344;-78
2023/02/24 11:45:49;;;;;;;5.90;1.87;;;;;;;;;;5073738;28;20380;-78
2023/02/24 11:48:19;;;;;;;7.10;1.60;;;;;;;;;;5087579;28;20451;-78
2023/02/24 11:50:51;;;;;;;7.57;1.63;;;;;;;;;;5068603;28;20028;-78
2023/02/24 11:53:16;;;;;;;7.63;1.90;;;;;;;;;;5072529;28;20484;-78
2023/02/24 11:55:45;;;;;;;10.17;2.47;;;;;;;;;;5071790;28;20106;-78
2023/02/24 11:58:22;;;;;;;13.17;2.27;;;;;;;;;;5072936;28;20161;-78
2023/02/24 12:00:54;;;;;;;11.63;2.50;;;;;;;;;;5073465;28;20016;-78
2023/02/24 12:03:24;;;;;;;6.63;2.08;;;;;;;;;;5079057;28;20062;-78
2023/02/24 12:05:52;;;;;;;6.80;2.90;;;;;;;;;;5070228;28;20448;-79
2023/02/24 12:08:17;;;;;;;4.13;1.60;;;;;;;;;;5073435;28;20020;-78
2023/02/24 12:10:47;;;;;;;7.87;2.40;;;;;;;;;;5069156;28;20127;-78
2023/02/24 12:13:22;;;;;;;5.83;1.87;;;;;;;;;;5067548;28;20073;-79
2023/02/24 12:15:50;;;;;;;11.77;2.07;;;;;;;;;;5075120;28;20108;-78
2023/02/24 12:18:24;;;;;;;7.70;1.97;;;;;;;;;;5073555;28;20353;-79
2023/02/24 12:21:18;;;;;;;9.13;1.83;;;;;;;;;;5072711;28;20028;-78
2023/02/24 12:23:45;;;;;;;12.90;2.37;;;;;;;;;;5069792;28;20029;-78
2023/02/24 12:26:33;;;;;;;9.87;2.53;;;;;;;;;;5073665;28;20091;-78
2023/02/24 12:29:11;;;;;;;9.40;2.30;;;;;;;;;;5079682;28;20028;-78
2023/02/24 12:31:55;;;;;;;7.67;2.20;;;;;;;;;;5071968;28;20024;-78
2023/02/24 12:34:35;;;;;;;6.87;2.40;;;;;;;;;;5054463;28;20029;-78
2023/02/24 12:37:19;;;;;;;5.67;1.90;;;;;;;;;;5069882;28;20024;-78
2023/02/24 12:40:03;;;;;;;10.63;2.40;;;;;;;;;;5071254;28;20361;-78
2023/02/24 12:42:28;;;;;;;8.03;2.00;;;;;;;;;;5072804;28;20020;-82
2023/02/24 12:45:21;;;;;;;10.33;2.40;;;;;;;;;;5067960;28;20021;-77
2023/02/24 12:47:58;;;;;;;12.57;2.13;;;;;;;;;;5066363;28;20029;-77
2023/02/24 12:50:42;;;;;;;8.23;2.13;;;;;;;;;;5066526;28;20020;-77
2023/02/24 12:53:10;;;;;;;10.37;3.00;;;;;;;;;;5066616;28;20036;-77
2023/02/24 12:55:54;;;;;;;10.23;2.47;;;;;;;;;;5063308;28;20087;-77
2023/02/24 12:58:22;;;;;;;6.63;1.87;;;;;;;;;;5061885;28;20422;-77
2023/02/24 13:00:54;;;;;;;16.27;2.97;;;;;;;;;;5075160;28;20445;-77
2023/02/24 13:03:34;;;;;;;16.85;2.58;;;;;;;;;;5067988;28;20025;-77
2023/02/24 13:06:01;;;;;;;10.40;2.20;;;;;;;;;;5073505;28;20066;-77
2023/02/24 13:08:33;;;;;;;10.57;3.00;;;;;;;;;;5072215;28;20020;-78
2023/02/24 13:11:28;;;;;;;6.93;2.33;;;;;;;;;;5072479;28;20356;-78
2023/02/24 13:14:05;;;;;;;7.83;2.60;;;;;;;;;;5067274;28;20025;-77
2023/02/24 13:16:32;;;;;;;10.83;2.40;;;;;;;;;;5072112;28;20024;-77
2023/02/24 13:19:05;;;;;;;6.07;2.57;;;;;;;;;;5073262;28;20070;-78
2023/02/24 13:21:31;;;;;;;16.80;3.17;;;;;;;;;;5073186;28;20530;-78
2023/02/24 13:24:00;;;;;;;10.47;2.77;;;;;;;;;;5073365;28;20368;-77
2023/02/24 13:26:27;;;;;;;13.40;3.47;;;;;;;;;;5071208;28;20055;-78
2023/02/24 13:28:57;;;;;;;8.70;2.80;;;;;;;;;;5070397;28;20123;-77
2023/02/24 13:31:25;;;;;;;11.63;3.70;;;;;;;;;;5071527;28;20013;-77
2023/02/24 13:33:51;;;;;;;8.07;3.20;;;;;;;;;;5057030;28;20012;-78
2023/02/24 13:36:21;;;;;;;10.13;3.03;;;;;;;;;;5061304;28;20016;-78
2023/02/24 13:38:49;;;;;;;9.00;3.17;;;;;;;;;;5071923;28;20044;-77
2023/02/24 13:41:26;;;;;;;8.47;2.47;;;;;;;;;;5054266;28;20036;-78
2023/02/24 13:43:55;;;;;;;11.43;3.50;;;;;;;;;;5063000;28;20024;-77
2023/02/24 13:46:20;;;;;;;9.03;3.63;;;;;;;;;;5062995;28;20417;-77
2023/02/24 13:48:56;;;;;;;15.67;3.93;;;;;;;;;;5073041;28;20058;-77
2023/02/24 13:51:45;;;;;;;12.30;3.30;;;;;;;;;;5067961;28;20127;-77
2023/02/24 13:54:10;;;;;;;10.40;3.90;;;;;;;;;;5070244;28;20039;-77
2023/02/24 13:56:36;;;;;;;14.73;3.93;;;;;;;;;;5070598;28;20020;-78
2023/02/24 13:59:29;;;;;;;15.27;4.63;;;;;;;;;;5071169;28;20043;-78
2023/02/24 14:02:17;;;;;;;14.37;4.30;;;;;;;;;;5061898;28;20020;-78
2023/02/24 14:04:51;;;;;;;11.93;4.70;;;;;;;;;;5070141;28;20025;-77
2023/02/24 14:07:24;;;;;;;12.53;4.40;;;;;;;;;;5071400;28;20021;-77
2023/02/24 14:10:01;;;;;;;10.80;5.10;;;;;;;;;;5070969;28;20024;-77
2023/02/24 14:12:30;;;;;;;13.93;5.17;;;;;;;;;;5064123;28;20052;-77
2023/02/24 14:14:55;;;;;;;8.97;4.47;;;;;;;;;;5066009;28;20024;-78
2023/02/24 14:17:27;;;;;;;14.57;4.60;;;;;;;;;;5078546;28;20102;-78
2023/02/24 14:20:13;;;;;;;19.17;5.22;;;;;;;;;;5070757;28;20036;-77
2023/02/24 14:22:44;;;;;;;22.77;6.20;;;;;;;;;;5070661;28;20041;-77
2023/02/24 14:25:11;;;;;;;15.03;5.40;;;;;;;;;;5072260;28;20379;-77
2023/02/24 14:27:38;;;;;;;16.20;5.13;;;;;;;;;;5051164;28;20067;-78
2023/02/24 14:30:05;;;;;;;16.93;7.13;;;;;;;;;;5059342;28;20028;-77
2023/02/24 14:32:31;;;;;;;16.70;7.90;;;;;;;;;;5070861;28;20134;-78
2023/02/24 14:34:56;;;;;;;12.07;5.83;;;;;;;;;;5059449;28;20056;-77
2023/02/24 14:37:24;;;;;;;17.47;6.80;;;;;;;;;;5067561;28;20198;-77
2023/02/24 14:39:54;;;;;;;17.77;7.97;;;;;;;;;;5064033;28;20028;-77
2023/02/24 14:42:19;;;;;;;11.07;5.93;;;;;;;;;;5067456;28;20055;-77
2023/02/24 14:44:48;;;;;;;21.03;7.90;;;;;;;;;;5070336;28;20485;-77
2023/02/24 14:47:14;;;;;;;12.77;7.07;;;;;;;;;;5071401;28;20164;-77
2023/02/24 14:49:39;;;;;;;19.23;8.93;;;;;;;;;;5072140;28;20566;-77
2023/02/24 14:52:13;;;;;;;22.93;11.40;;;;;;;;;;5067914;28;20099;-78
2023/02/24 14:54:53;;;;;;;19.03;8.43;;;;;;;;;;5085147;28;20107;-78
2023/02/24 14:57:21;;;;;;;20.90;8.53;;;;;;;;;;5070815;28;20121;-77
2023/02/24 14:59:49;;;;;;;20.13;9.53;;;;;;;;;;5066755;28;20376;-77
2023/02/24 15:02:18;;;;;;;23.63;11.33;;;;;;;;;;5071865;28;20047;-77
2023/02/24 15:04:45;;;;;;;24.60;10.97;;;;;;;;;;5069696;28;20078;-77
2023/02/24 15:07:18;;;;;;;17.00;8.57;;;;;;;;;;5061671;28;20023;-77
2023/02/24 15:09:43;;;;;;;;;;;;;;;;;;5070984;28;20035;-77
2023/02/24 15:12:11;;;;;;;16.30;7.70;;;;;;;;;;5071773;28;19987;-77
2023/02/24 15:14:36;;;;;;;20.40;9.13;;;;;;;;;;5071936;28;20021;-77
2023/02/24 15:17:13;;;;;;;18.67;8.00;;;;;;;;;;5074265;28;20070;-77